createdAt,value
2023-05-19T00:00:07.013Z,23.28
2023-05-19T00:01:07.046Z,23.27
2023-05-19T00:02:07.105Z,23.28
2023-05-19T00:03:07.185Z,23.27
2023-05-19T00:04:07.185Z,23.28
2023-05-19T00:05:07.228Z,23.28
2023-05-19T00:06:07.387Z,23.27
2023-05-19T00:07:07.341Z,23.27
2023-05-19T00:08:07.390Z,23.28
2023-05-19T00:09:07.441Z,23.30
2023-05-19T00:10:07.489Z,23.28
2023-05-19T00:11:07.528Z,23.28
2023-05-19T00:12:07.568Z,23.31
2023-05-19T00:13:07.609Z,23.25
2023-05-19T00:14:07.668Z,23.27
2023-05-19T00:15:07.709Z,23.27
2023-05-19T00:16:07.779Z,23.25
2023-05-19T00:17:07.814Z,23.28
2023-05-19T00:18:07.905Z,23.28
2023-05-19T00:19:08.017Z,23.25
2023-05-19T00:20:07.939Z,23.27
2023-05-19T00:21:07.990Z,23.27
2023-05-19T00:22:08.043Z,23.27
2023-05-19T00:23:08.115Z,23.25
2023-05-19T00:24:08.149Z,23.28
2023-05-19T00:25:08.178Z,23.25
2023-05-19T00:26:08.210Z,23.25
2023-05-19T00:27:08.266Z,23.25
2023-05-19T00:28:08.321Z,23.27
2023-05-19T00:29:08.375Z,23.28
2023-05-19T00:30:08.406Z,23.27
2023-05-19T00:31:08.455Z,23.25
2023-05-19T00:32:08.627Z,23.25
2023-05-19T00:33:08.589Z,23.25
2023-05-19T00:34:08.593Z,23.27
2023-05-19T00:35:08.640Z,23.27
2023-05-19T00:36:08.692Z,23.25
2023-05-19T00:37:08.736Z,23.25
2023-05-19T00:38:08.780Z,23.25
2023-05-19T00:39:08.829Z,23.24
2023-05-19T00:40:08.864Z,23.24
2023-05-19T00:41:08.915Z,23.27
2023-05-19T00:42:08.959Z,23.27
2023-05-19T00:43:09.013Z,23.25
2023-05-19T00:44:09.053Z,23.28
2023-05-19T00:45:09.130Z,23.25
2023-05-19T00:46:09.196Z,23.25
2023-05-19T00:47:09.261Z,23.27
2023-05-19T00:48:09.427Z,23.24
2023-05-19T00:49:09.325Z,23.24
2023-05-19T00:50:09.335Z,23.22
2023-05-19T00:51:09.384Z,23.25
2023-05-19T00:52:09.430Z,23.24
2023-05-19T00:53:09.467Z,23.27
2023-05-19T00:54:09.516Z,23.22
2023-05-19T00:55:09.575Z,23.24
2023-05-19T00:56:09.611Z,23.24
2023-05-19T00:57:09.655Z,23.24
2023-05-19T00:58:09.718Z,23.24
2023-05-19T00:59:09.765Z,23.21
2023-05-19T01:00:09.903Z,23.22
2023-05-19T01:01:09.949Z,23.24
2023-05-19T01:02:09.893Z,23.24
2023-05-19T01:03:10.025Z,23.24
2023-05-19T01:04:10.134Z,23.24
2023-05-19T01:05:10.042Z,23.25
2023-05-19T01:06:10.080Z,23.24
2023-05-19T01:07:10.115Z,23.24
2023-05-19T01:08:10.167Z,23.24
2023-05-19T01:09:10.211Z,23.22
2023-05-19T01:10:10.260Z,23.24
2023-05-19T01:11:10.324Z,23.24
2023-05-19T01:12:10.356Z,23.25
2023-05-19T01:13:10.404Z,23.24
2023-05-19T01:14:10.463Z,23.25
2023-05-19T01:15:10.496Z,23.20
2023-05-19T01:16:10.596Z,23.22
2023-05-19T01:17:10.597Z,23.24
2023-05-19T01:18:10.682Z,23.24
2023-05-19T01:19:10.824Z,23.24
2023-05-19T01:20:10.732Z,23.22
2023-05-19T01:21:10.786Z,23.24
2023-05-19T01:22:10.816Z,23.24
2023-05-19T01:23:10.877Z,23.22
2023-05-19T01:24:10.951Z,23.22
2023-05-19T01:25:10.951Z,23.22
2023-05-19T01:26:11.014Z,23.20
2023-05-19T01:27:11.066Z,23.22
2023-05-19T01:28:11.121Z,23.21
2023-05-19T01:29:11.165Z,23.22
2023-05-19T01:30:11.216Z,23.24
2023-05-19T01:31:11.267Z,23.24
2023-05-19T01:32:11.379Z,23.22
2023-05-19T01:33:11.372Z,23.22
2023-05-19T01:34:11.428Z,23.21
2023-05-19T01:35:11.469Z,23.21
2023-05-19T01:36:11.525Z,23.21
2023-05-19T01:37:11.603Z,23.21
2023-05-19T01:38:11.620Z,23.21
2023-05-19T01:39:11.690Z,23.21
2023-05-19T01:40:11.734Z,23.24
2023-05-19T01:41:11.782Z,23.21
2023-05-19T01:42:11.832Z,23.20
2023-05-19T01:43:11.897Z,23.20
2023-05-19T01:44:11.937Z,23.21
2023-05-19T01:45:11.985Z,23.21
2023-05-19T01:46:12.133Z,23.21
2023-05-19T01:47:12.114Z,23.21
2023-05-19T01:48:12.271Z,23.20
2023-05-19T01:49:12.205Z,23.20
2023-05-19T01:50:12.259Z,23.21
2023-05-19T01:51:12.323Z,23.18
2023-05-19T01:52:12.375Z,23.21
2023-05-19T01:53:12.428Z,23.21
2023-05-19T01:54:12.485Z,23.21
2023-05-19T01:55:12.535Z,23.20
2023-05-19T01:56:12.606Z,23.20
2023-05-19T01:57:12.644Z,23.20
2023-05-19T01:58:12.706Z,23.22
2023-05-19T01:59:12.753Z,23.18
2023-05-19T02:00:12.806Z,23.18
2023-05-19T02:01:12.927Z,23.22
2023-05-19T02:02:12.920Z,23.21
2023-05-19T02:03:12.971Z,23.21
2023-05-19T02:04:13.069Z,23.20
2023-05-19T02:05:13.080Z,23.20
2023-05-19T02:06:13.126Z,23.21
2023-05-19T02:07:13.176Z,23.21
2023-05-19T02:08:13.243Z,23.21
2023-05-19T02:09:13.290Z,23.20
2023-05-19T02:10:13.345Z,23.22
2023-05-19T02:11:13.412Z,23.21
2023-05-19T02:12:13.484Z,23.20
2023-05-19T02:13:13.501Z,23.18
2023-05-19T02:14:13.571Z,23.18
2023-05-19T02:15:13.605Z,23.18
2023-05-19T02:16:13.705Z,23.21
2023-05-19T02:17:13.702Z,23.20
2023-05-19T02:18:13.751Z,23.21
2023-05-19T02:19:13.866Z,23.21
2023-05-19T02:20:13.829Z,23.20
2023-05-19T02:21:13.868Z,23.20
2023-05-19T02:22:13.937Z,23.20
2023-05-19T02:23:13.984Z,23.18
2023-05-19T02:24:14.027Z,23.20
2023-05-19T02:25:14.081Z,23.20
2023-05-19T02:26:14.146Z,23.20
2023-05-19T02:27:14.189Z,23.21
2023-05-19T02:28:14.242Z,23.17
2023-05-19T02:29:14.294Z,23.18
2023-05-19T02:30:14.335Z,23.18
2023-05-19T02:31:14.385Z,23.20
2023-05-19T02:32:14.502Z,23.20
2023-05-19T02:33:14.604Z,23.18
2023-05-19T02:34:14.561Z,23.21
2023-05-19T02:35:14.613Z,23.21
2023-05-19T02:36:14.665Z,23.18
2023-05-19T02:37:14.695Z,23.20
2023-05-19T02:38:14.744Z,23.18
2023-05-19T02:39:14.804Z,23.18
2023-05-19T02:40:14.858Z,23.20
2023-05-19T02:41:14.918Z,23.20
2023-05-19T02:42:14.983Z,23.20
2023-05-19T02:43:15.028Z,23.21
2023-05-19T02:44:15.099Z,23.18
2023-05-19T02:45:15.130Z,23.20
2023-05-19T02:46:15.201Z,23.18
2023-05-19T02:47:15.237Z,23.20
2023-05-19T02:48:15.338Z,23.15
2023-05-19T02:49:15.353Z,23.18
2023-05-19T02:50:15.398Z,23.18
2023-05-19T02:51:15.452Z,23.21
2023-05-19T02:52:15.592Z,23.20
2023-05-19T02:53:15.558Z,23.17
2023-05-19T02:54:15.601Z,23.20
2023-05-19T02:55:15.638Z,23.18
2023-05-19T02:56:15.675Z,23.18
2023-05-19T02:57:15.691Z,23.18
2023-05-19T02:58:15.738Z,23.18
2023-05-19T02:59:15.815Z,23.18
2023-05-19T03:00:15.840Z,23.17
2023-05-19T03:01:15.918Z,23.18
2023-05-19T03:02:16.024Z,23.17
2023-05-19T03:03:16.125Z,23.20
2023-05-19T03:04:16.012Z,23.18
2023-05-19T03:05:16.070Z,23.20
2023-05-19T03:06:16.116Z,23.18
2023-05-19T03:07:16.180Z,23.18
2023-05-19T03:08:16.331Z,23.18
2023-05-19T03:09:16.278Z,23.15
2023-05-19T03:10:16.331Z,23.18
2023-05-19T03:11:16.399Z,23.15
2023-05-19T03:12:16.455Z,23.18
2023-05-19T03:13:16.506Z,23.17
2023-05-19T03:14:16.595Z,23.15
2023-05-19T03:15:16.598Z,23.14
2023-05-19T03:16:16.731Z,23.18
2023-05-19T03:17:16.767Z,23.17
2023-05-19T03:18:16.841Z,23.17
2023-05-19T03:19:16.880Z,23.18
2023-05-19T03:20:16.866Z,23.15
2023-05-19T03:21:16.925Z,23.17
2023-05-19T03:22:16.984Z,23.15
2023-05-19T03:23:17.025Z,23.14
2023-05-19T03:24:17.085Z,23.17
2023-05-19T03:25:17.142Z,23.17
2023-05-19T03:26:17.219Z,23.17
2023-05-19T03:27:17.243Z,23.14
2023-05-19T03:28:17.319Z,23.17
2023-05-19T03:29:17.371Z,23.15
2023-05-19T03:30:17.405Z,23.17
2023-05-19T03:31:17.470Z,23.14
2023-05-19T03:32:17.618Z,23.14
2023-05-19T03:33:17.611Z,23.17
2023-05-19T03:34:17.640Z,23.17
2023-05-19T03:35:17.654Z,23.14
2023-05-19T03:36:17.719Z,23.13
2023-05-19T03:37:17.774Z,23.14
2023-05-19T03:38:17.863Z,23.13
2023-05-19T03:39:17.893Z,23.13
2023-05-19T03:40:17.949Z,23.15
2023-05-19T03:41:18.011Z,23.13
2023-05-19T03:42:18.050Z,23.13
2023-05-19T03:43:18.104Z,23.14
2023-05-19T03:44:18.166Z,23.13
2023-05-19T03:45:18.224Z,23.14
2023-05-19T03:46:18.327Z,23.14
2023-05-19T03:47:18.337Z,23.13
2023-05-19T03:48:21.110Z,23.15
2023-05-19T03:49:18.397Z,23.14
2023-05-19T03:50:18.387Z,23.13
2023-05-19T03:51:18.394Z,23.13
2023-05-19T03:52:18.369Z,23.13
2023-05-19T03:53:18.387Z,23.13
2023-05-19T03:54:18.352Z,23.14
2023-05-19T03:55:18.387Z,23.14
2023-05-19T03:56:18.342Z,23.14
2023-05-19T03:57:18.328Z,23.13
2023-05-19T03:58:18.319Z,23.13
2023-05-19T03:59:18.319Z,23.11
2023-05-19T04:00:18.326Z,23.17
2023-05-19T04:01:18.298Z,23.14
2023-05-19T04:02:18.334Z,23.14
2023-05-19T04:03:18.452Z,23.14
2023-05-19T04:04:18.328Z,23.14
2023-05-19T04:05:18.275Z,23.13
2023-05-19T04:06:18.265Z,23.11
2023-05-19T04:07:18.249Z,23.13
2023-05-19T04:08:18.280Z,23.15
2023-05-19T04:09:18.238Z,23.13
2023-05-19T04:10:18.241Z,23.14
2023-05-19T04:11:18.230Z,23.14
2023-05-19T04:12:18.250Z,23.13
2023-05-19T04:13:18.217Z,23.14
2023-05-19T04:14:18.201Z,23.14
2023-05-19T04:15:18.209Z,23.14
2023-05-19T04:16:18.269Z,23.15
2023-05-19T04:17:18.192Z,23.17
2023-05-19T04:18:18.189Z,23.18
2023-05-19T04:19:18.205Z,23.17
2023-05-19T04:20:18.156Z,23.15
2023-05-19T04:21:18.158Z,23.15
2023-05-19T04:22:18.156Z,23.17
2023-05-19T04:23:18.139Z,23.20
2023-05-19T04:24:18.152Z,23.20
2023-05-19T04:25:18.127Z,23.24
2023-05-19T04:26:18.139Z,23.24
2023-05-19T04:27:18.146Z,23.30
2023-05-19T04:28:18.156Z,23.25
2023-05-19T04:29:18.675Z,23.31
2023-05-19T04:30:18.805Z,23.31
2023-05-19T04:31:18.343Z,23.37
2023-05-19T04:32:18.354Z,23.38
2023-05-19T04:33:18.380Z,23.40
2023-05-19T04:34:18.419Z,23.45
2023-05-19T04:35:18.453Z,23.50
2023-05-19T04:36:18.501Z,23.60
2023-05-19T04:37:18.548Z,23.71
2023-05-19T04:38:18.568Z,23.88
2023-05-19T04:39:18.575Z,24.09
2023-05-19T04:40:18.556Z,24.33
2023-05-19T04:41:18.580Z,24.57
2023-05-19T04:42:18.626Z,24.83
2023-05-19T04:43:18.700Z,25.04
2023-05-19T04:44:18.760Z,25.21
2023-05-19T04:45:18.759Z,25.41
2023-05-19T04:46:18.817Z,25.61
2023-05-19T04:47:18.809Z,25.78
2023-05-19T04:48:18.815Z,25.95
2023-05-19T04:49:18.817Z,26.07
2023-05-19T04:50:18.813Z,26.17
2023-05-19T04:51:18.821Z,26.25
2023-05-19T04:52:18.818Z,26.25
2023-05-19T04:53:18.840Z,26.17
2023-05-19T04:54:18.833Z,26.15
2023-05-19T04:55:18.825Z,26.13
2023-05-19T04:56:18.828Z,26.12
2023-05-19T04:57:18.832Z,26.07
2023-05-19T04:58:18.859Z,25.99
2023-05-19T04:59:18.862Z,25.92
2023-05-19T05:00:18.901Z,25.81
2023-05-19T05:01:18.966Z,25.69
2023-05-19T05:02:19.064Z,25.57
2023-05-19T05:03:19.068Z,25.41
2023-05-19T05:04:19.027Z,25.32
2023-05-19T05:05:19.080Z,25.18
2023-05-19T05:06:19.104Z,25.10
2023-05-19T05:07:19.149Z,24.98
2023-05-19T05:08:19.208Z,24.91
2023-05-19T05:09:19.295Z,24.83
2023-05-19T05:10:19.341Z,24.81
2023-05-19T05:11:19.398Z,24.78
2023-05-19T05:12:19.442Z,24.83
2023-05-19T05:13:19.508Z,24.90
2023-05-19T05:14:19.583Z,24.95
2023-05-19T05:15:19.596Z,24.98
2023-05-19T05:16:19.676Z,25.00
2023-05-19T05:17:19.666Z,24.98
2023-05-19T05:18:19.721Z,24.94
2023-05-19T05:19:19.787Z,24.93
2023-05-19T05:20:19.813Z,24.84
2023-05-19T05:21:19.880Z,24.81
2023-05-19T05:22:19.925Z,24.74
2023-05-19T05:23:19.985Z,24.68
2023-05-19T05:24:20.048Z,24.66
2023-05-19T05:25:20.089Z,24.56
2023-05-19T05:26:20.152Z,24.55
2023-05-19T05:27:20.201Z,24.50
2023-05-19T05:28:20.233Z,24.47
2023-05-19T05:29:20.272Z,24.40
2023-05-19T05:30:20.302Z,24.39
2023-05-19T05:31:20.308Z,24.37
2023-05-19T05:32:20.322Z,24.36
2023-05-19T05:33:20.474Z,24.37
2023-05-19T05:34:20.373Z,24.39
2023-05-19T05:35:20.413Z,24.47
2023-05-19T05:36:20.480Z,24.60
2023-05-19T05:37:20.516Z,24.71
2023-05-19T05:38:20.551Z,24.77
2023-05-19T05:39:20.658Z,24.88
2023-05-19T05:40:20.636Z,24.97
2023-05-19T05:41:20.683Z,25.04
2023-05-19T05:42:20.708Z,25.10
2023-05-19T05:43:20.740Z,25.15
2023-05-19T05:44:20.772Z,25.15
2023-05-19T05:45:20.820Z,25.14
2023-05-19T05:46:20.888Z,25.10
2023-05-19T05:47:20.900Z,25.07
2023-05-19T05:48:20.991Z,25.01
2023-05-19T05:49:20.956Z,24.97
2023-05-19T05:50:21.012Z,24.94
2023-05-19T05:51:21.083Z,24.86
2023-05-19T05:52:21.118Z,24.84
2023-05-19T05:53:21.179Z,24.81
2023-05-19T05:54:21.228Z,24.74
2023-05-19T05:55:21.292Z,24.71
2023-05-19T05:56:21.360Z,24.66
2023-05-19T05:57:21.410Z,24.63
2023-05-19T05:58:21.465Z,24.59
2023-05-19T05:59:21.554Z,24.56
2023-05-19T06:00:21.598Z,24.50
2023-05-19T06:01:21.656Z,24.47
2023-05-19T06:02:21.716Z,24.46
2023-05-19T06:03:21.942Z,24.40
2023-05-19T06:04:21.756Z,24.36
2023-05-19T06:05:21.783Z,24.33
2023-05-19T06:06:21.793Z,24.30
2023-05-19T06:07:21.844Z,24.29
2023-05-19T06:08:21.834Z,24.25
2023-05-19T06:09:21.807Z,24.23
2023-05-19T06:10:21.820Z,24.22
2023-05-19T06:11:21.827Z,24.19
2023-05-19T06:12:21.840Z,24.19
2023-05-19T06:13:21.840Z,24.19
2023-05-19T06:14:21.851Z,24.15
2023-05-19T06:15:21.851Z,24.16
2023-05-19T06:16:21.893Z,24.17
2023-05-19T06:17:21.876Z,24.19
2023-05-19T06:18:21.900Z,24.22
2023-05-19T06:19:22.093Z,24.23
2023-05-19T06:20:22.012Z,24.27
2023-05-19T06:21:22.084Z,24.30
2023-05-19T06:22:22.105Z,24.32
2023-05-19T06:23:22.183Z,24.35
2023-05-19T06:24:22.200Z,24.39
2023-05-19T06:25:22.304Z,24.40
2023-05-19T06:26:22.326Z,24.44
2023-05-19T06:27:22.378Z,24.42
2023-05-19T06:28:22.428Z,24.37
2023-05-19T06:29:22.484Z,24.36
2023-05-19T06:30:22.540Z,24.35
2023-05-19T06:31:22.697Z,24.36
2023-05-19T06:32:22.722Z,24.35
2023-05-19T06:33:22.794Z,24.33
2023-05-19T06:34:22.769Z,24.32
2023-05-19T06:35:22.832Z,24.30
2023-05-19T06:36:22.918Z,24.33
2023-05-19T06:37:22.947Z,24.30
2023-05-19T06:38:22.989Z,24.32
2023-05-19T06:39:23.040Z,24.30
2023-05-19T06:40:23.067Z,24.32
2023-05-19T06:41:23.110Z,24.35
2023-05-19T06:42:23.173Z,24.36
2023-05-19T06:43:23.240Z,24.36
2023-05-19T06:44:23.283Z,24.37
2023-05-19T06:45:23.317Z,24.40
2023-05-19T06:46:23.506Z,24.42
2023-05-19T06:47:23.527Z,24.42
2023-05-19T06:48:23.499Z,24.44
2023-05-19T06:49:23.601Z,24.46
2023-05-19T06:50:23.634Z,24.44
2023-05-19T06:51:23.702Z,24.46
2023-05-19T06:52:23.764Z,24.44
2023-05-19T06:53:23.812Z,24.44
2023-05-19T06:54:23.878Z,24.43
2023-05-19T06:55:23.933Z,24.42
2023-05-19T06:56:23.990Z,24.42
2023-05-19T06:57:24.075Z,24.39
2023-05-19T06:58:24.122Z,24.39
2023-05-19T06:59:24.173Z,24.37
2023-05-19T07:00:24.331Z,24.39
2023-05-19T07:01:24.316Z,24.35
2023-05-19T07:02:24.370Z,24.36
2023-05-19T07:03:24.513Z,24.36
2023-05-19T07:04:24.513Z,24.33
2023-05-19T07:05:24.556Z,24.35
2023-05-19T07:06:24.640Z,24.36
2023-05-19T07:07:24.684Z,24.35
2023-05-19T07:08:24.782Z,24.35
2023-05-19T07:09:24.820Z,24.35
2023-05-19T07:10:24.865Z,24.36
2023-05-19T07:11:24.951Z,24.35
2023-05-19T07:12:24.990Z,24.36
2023-05-19T07:13:27.320Z,24.36
2023-05-19T07:14:25.245Z,24.33
2023-05-19T07:15:25.285Z,24.35
2023-05-19T07:16:25.401Z,24.36
2023-05-19T07:17:25.429Z,24.35
2023-05-19T07:18:25.431Z,24.35
2023-05-19T07:19:25.585Z,24.37
2023-05-19T07:20:25.529Z,24.35
2023-05-19T07:21:25.626Z,24.37
2023-05-19T07:22:25.661Z,24.36
2023-05-19T07:23:25.720Z,24.35
2023-05-19T07:24:25.771Z,24.35
2023-05-19T07:25:25.843Z,24.33
2023-05-19T07:26:25.873Z,24.35
2023-05-19T07:27:25.947Z,24.35
2023-05-19T07:28:26.009Z,24.35
2023-05-19T07:29:26.112Z,24.33
2023-05-19T07:30:26.202Z,24.33
2023-05-19T07:31:26.231Z,24.35
2023-05-19T07:32:26.352Z,24.33
2023-05-19T07:33:26.296Z,24.35
2023-05-19T07:34:26.401Z,24.36
2023-05-19T07:35:26.420Z,24.33
2023-05-19T07:36:26.461Z,24.33
2023-05-19T07:37:26.531Z,24.32
2023-05-19T07:38:26.568Z,24.33
2023-05-19T07:39:26.639Z,24.36
2023-05-19T07:40:26.846Z,24.33
2023-05-19T07:41:26.782Z,24.35
2023-05-19T07:42:26.832Z,24.35
2023-05-19T07:43:26.870Z,24.35
2023-05-19T07:44:26.939Z,24.33
2023-05-19T07:45:26.993Z,24.35
2023-05-19T07:46:27.090Z,24.33
2023-05-19T07:47:27.130Z,24.35
2023-05-19T07:48:27.205Z,24.33
2023-05-19T07:49:27.232Z,24.33
2023-05-19T07:50:27.304Z,24.32
2023-05-19T07:51:27.342Z,24.32
2023-05-19T07:52:27.413Z,24.35
2023-05-19T07:53:27.473Z,24.32
2023-05-19T07:54:27.576Z,24.35
2023-05-19T07:55:27.557Z,24.36
2023-05-19T07:56:27.740Z,24.33
2023-05-19T07:57:27.633Z,24.36
2023-05-19T07:58:27.705Z,24.36
2023-05-19T07:59:27.772Z,24.35
2023-05-19T08:00:27.825Z,24.35
2023-05-19T08:01:27.871Z,24.35
2023-05-19T08:02:28.029Z,24.35
2023-05-19T08:03:28.119Z,24.33
2023-05-19T08:04:28.097Z,24.37
2023-05-19T08:05:28.114Z,24.37
2023-05-19T08:06:28.186Z,24.42
2023-05-19T08:07:28.259Z,24.39
2023-05-19T08:08:28.305Z,24.42
2023-05-19T08:09:28.368Z,24.42
2023-05-19T08:10:28.440Z,24.43
2023-05-19T08:11:28.514Z,24.43
2023-05-19T08:12:28.533Z,24.40
2023-05-19T08:13:28.593Z,24.44
2023-05-19T08:14:28.657Z,24.44
2023-05-19T08:15:28.764Z,24.43
2023-05-19T08:16:28.892Z,24.44
2023-05-19T08:17:28.923Z,24.46
2023-05-19T08:18:28.925Z,24.43
2023-05-19T08:19:29.017Z,24.42
2023-05-19T08:20:29.032Z,24.44
2023-05-19T08:21:29.086Z,24.39
2023-05-19T08:22:29.163Z,24.44
2023-05-19T08:23:29.183Z,24.42
2023-05-19T08:24:29.245Z,24.43
2023-05-19T08:25:29.306Z,24.43
2023-05-19T08:26:29.379Z,24.44
2023-05-19T08:27:29.408Z,24.46
2023-05-19T08:28:29.530Z,24.44
2023-05-19T08:29:29.560Z,24.47
2023-05-19T08:30:29.592Z,24.46
2023-05-19T08:31:29.672Z,24.49
2023-05-19T08:32:29.719Z,24.49
2023-05-19T08:33:29.750Z,24.50
2023-05-19T08:34:29.803Z,24.49
2023-05-19T08:35:29.860Z,24.49
2023-05-19T08:36:29.909Z,24.50
2023-05-19T08:37:31.484Z,24.49
2023-05-19T08:38:29.970Z,24.49
2023-05-19T08:39:29.964Z,24.52
2023-05-19T08:40:29.951Z,24.50
2023-05-19T08:41:29.949Z,24.49
2023-05-19T08:42:29.948Z,24.50
2023-05-19T08:43:29.927Z,24.52
2023-05-19T08:44:29.920Z,24.52
2023-05-19T08:45:30.061Z,24.53
2023-05-19T08:46:29.933Z,24.53
2023-05-19T08:47:29.972Z,24.53
2023-05-19T08:48:29.890Z,24.53
2023-05-19T08:49:29.887Z,24.53
2023-05-19T08:50:29.957Z,24.55
2023-05-19T08:51:29.877Z,24.55
2023-05-19T08:52:29.884Z,24.56
2023-05-19T08:53:33.905Z,24.56
2023-05-19T08:54:29.843Z,24.55
2023-05-19T08:55:29.910Z,24.57
2023-05-19T08:56:29.824Z,24.57
2023-05-19T08:57:29.836Z,24.56
2023-05-19T08:58:29.822Z,24.59
2023-05-19T08:59:29.804Z,24.59
2023-05-19T09:00:29.867Z,24.59
2023-05-19T09:01:29.884Z,24.62
2023-05-19T09:02:29.819Z,24.62
2023-05-19T09:03:29.857Z,24.63
2023-05-19T09:04:30.331Z,24.60
2023-05-19T09:05:29.812Z,24.66
2023-05-19T09:06:29.759Z,24.66
2023-05-19T09:07:29.805Z,24.68
2023-05-19T09:08:29.842Z,24.67
2023-05-19T09:09:29.880Z,24.68
2023-05-19T09:10:29.921Z,24.70
2023-05-19T09:11:29.952Z,24.68
2023-05-19T09:12:30.010Z,24.68
2023-05-19T09:13:30.054Z,24.70
2023-05-19T09:14:30.069Z,24.70
2023-05-19T09:15:30.195Z,24.71
2023-05-19T09:16:30.451Z,24.71
2023-05-19T09:17:30.195Z,24.70
2023-05-19T09:18:30.204Z,24.70
2023-05-19T09:19:30.337Z,24.68
2023-05-19T09:20:30.296Z,24.70
2023-05-19T09:21:30.310Z,24.70
2023-05-19T09:22:30.345Z,24.68
2023-05-19T09:23:30.380Z,24.70
2023-05-19T09:24:30.416Z,24.71
2023-05-19T09:25:30.515Z,24.71
2023-05-19T09:26:30.501Z,24.73
2023-05-19T09:27:30.547Z,24.68
2023-05-19T09:28:30.603Z,24.71
2023-05-19T09:29:30.613Z,24.74
2023-05-19T09:30:30.659Z,24.71
2023-05-19T09:31:30.732Z,24.71
2023-05-19T09:32:30.844Z,24.73
2023-05-19T09:33:30.787Z,24.74
2023-05-19T09:34:30.822Z,24.71
2023-05-19T09:35:30.990Z,24.73
2023-05-19T09:36:30.899Z,24.74
2023-05-19T09:37:30.946Z,24.71
2023-05-19T09:38:30.984Z,24.70
2023-05-19T09:39:31.006Z,24.68
2023-05-19T09:40:31.032Z,24.70
2023-05-19T09:41:31.079Z,24.73
2023-05-19T09:42:31.108Z,24.74
2023-05-19T09:43:31.139Z,24.71
2023-05-19T09:44:31.205Z,24.74
2023-05-19T09:45:31.429Z,24.73
2023-05-19T09:46:31.352Z,24.74
2023-05-19T09:47:31.352Z,24.74
2023-05-19T09:48:31.446Z,24.74
2023-05-19T09:49:31.413Z,24.74
2023-05-19T09:50:31.394Z,24.76
2023-05-19T09:51:31.420Z,24.73
2023-05-19T09:52:31.467Z,24.76
2023-05-19T09:53:31.496Z,24.76
2023-05-19T09:54:31.523Z,24.77
2023-05-19T09:55:31.681Z,24.74
2023-05-19T09:56:31.582Z,24.76
2023-05-19T09:57:31.616Z,24.76
2023-05-19T09:58:31.647Z,24.76
2023-05-19T09:59:33.853Z,24.76
2023-05-19T10:00:31.843Z,24.77
2023-05-19T10:01:31.818Z,24.76
2023-05-19T10:02:31.792Z,24.76
2023-05-19T10:03:31.779Z,24.74
2023-05-19T10:04:31.981Z,24.76
2023-05-19T10:05:32.069Z,24.74
2023-05-19T10:06:31.899Z,24.76
2023-05-19T10:07:31.909Z,24.74
2023-05-19T10:08:32.027Z,24.77
2023-05-19T10:09:31.983Z,24.76
2023-05-19T10:10:32.001Z,24.74
2023-05-19T10:11:32.050Z,24.73
2023-05-19T10:12:32.098Z,24.71
2023-05-19T10:13:32.102Z,24.73
2023-05-19T10:14:32.151Z,24.73
2023-05-19T10:15:34.466Z,24.73
2023-05-19T10:16:32.201Z,24.68
2023-05-19T10:17:32.270Z,24.71
2023-05-19T10:18:32.151Z,24.70
2023-05-19T10:19:32.280Z,24.70
2023-05-19T10:20:32.363Z,24.73
2023-05-19T10:21:32.147Z,24.71
2023-05-19T10:22:32.149Z,24.70
2023-05-19T10:23:32.136Z,24.73
2023-05-19T10:24:32.168Z,24.71
2023-05-19T10:25:32.304Z,24.73
2023-05-19T10:26:32.108Z,24.73
2023-05-19T10:27:32.106Z,24.71
2023-05-19T10:28:32.127Z,24.73
2023-05-19T10:29:32.091Z,24.71
2023-05-19T10:30:32.073Z,24.73
2023-05-19T10:31:32.198Z,24.73
2023-05-19T10:32:32.187Z,24.71
2023-05-19T10:33:32.063Z,24.74
2023-05-19T10:34:32.069Z,24.74
2023-05-19T10:35:32.517Z,24.74
2023-05-19T10:36:32.035Z,24.73
2023-05-19T10:37:32.041Z,24.76
2023-05-19T10:38:32.011Z,24.71
2023-05-19T10:39:32.006Z,24.74
2023-05-19T10:40:32.019Z,24.71
2023-05-19T10:41:31.994Z,24.74
2023-05-19T10:42:31.992Z,24.76
2023-05-19T10:43:31.999Z,24.74
2023-05-19T10:44:31.972Z,24.74
2023-05-19T10:45:32.100Z,24.74
2023-05-19T10:46:32.005Z,24.74
2023-05-19T10:47:31.999Z,24.76
2023-05-19T10:48:31.958Z,24.73
2023-05-19T10:49:31.946Z,24.73
2023-05-19T10:50:31.992Z,24.73
2023-05-19T10:51:32.021Z,24.74
2023-05-19T10:52:32.034Z,24.73
2023-05-19T10:53:32.079Z,24.73
2023-05-19T10:54:32.109Z,24.73
2023-05-19T10:55:32.345Z,24.76
2023-05-19T10:56:32.173Z,24.76
2023-05-19T10:57:32.264Z,24.74
2023-05-19T10:58:32.249Z,24.74
2023-05-19T10:59:32.298Z,24.76
2023-05-19T11:00:32.334Z,24.76
2023-05-19T11:01:32.386Z,24.78
2023-05-19T11:02:32.472Z,24.78
2023-05-19T11:03:32.449Z,24.80
2023-05-19T11:04:32.553Z,24.77
2023-05-19T11:05:32.680Z,24.80
2023-05-19T11:06:32.533Z,24.81
2023-05-19T11:07:32.540Z,24.80
2023-05-19T11:08:32.583Z,24.80
2023-05-19T11:09:39.872Z,24.81
2023-05-19T11:10:33.587Z,24.81
2023-05-19T11:11:33.261Z,24.80
2023-05-19T11:12:32.585Z,24.80
2023-05-19T11:13:32.598Z,24.81
2023-05-19T11:14:32.549Z,24.83
2023-05-19T11:15:32.698Z,24.83
2023-05-19T11:16:32.600Z,24.80
2023-05-19T11:17:33.244Z,24.83
2023-05-19T11:18:32.543Z,24.83
2023-05-19T11:19:32.560Z,24.83
2023-05-19T11:20:32.527Z,24.81
2023-05-19T11:21:32.653Z,24.83
2023-05-19T11:22:32.593Z,24.83
2023-05-19T11:23:34.830Z,24.81
2023-05-19T11:24:32.624Z,24.81
2023-05-19T11:25:32.762Z,24.78
2023-05-19T11:26:32.618Z,24.80
2023-05-19T11:27:32.638Z,24.80
2023-05-19T11:28:32.638Z,24.78
2023-05-19T11:29:34.224Z,24.80
2023-05-19T11:30:32.572Z,24.78
2023-05-19T11:31:32.590Z,24.80
2023-05-19T11:32:32.604Z,24.81
2023-05-19T11:33:32.559Z,24.80
2023-05-19T11:34:32.552Z,24.81
2023-05-19T11:35:34.007Z,24.81
2023-05-19T11:36:32.546Z,24.78
2023-05-19T11:37:32.575Z,24.83
2023-05-19T11:38:32.545Z,24.80
2023-05-19T11:39:32.512Z,24.80
2023-05-19T11:40:32.551Z,24.81
2023-05-19T11:41:32.510Z,24.80
2023-05-19T11:42:32.491Z,24.80
2023-05-19T11:43:32.494Z,24.83
2023-05-19T11:44:32.489Z,24.78
2023-05-19T11:45:32.701Z,24.78
2023-05-19T11:46:32.515Z,24.78
2023-05-19T11:47:42.064Z,24.77
2023-05-19T11:48:33.508Z,24.80
2023-05-19T11:49:32.462Z,24.78
2023-05-19T11:50:32.432Z,24.78
2023-05-19T11:51:32.432Z,24.77
2023-05-19T11:52:32.435Z,24.81
2023-05-19T11:53:34.004Z,24.77
2023-05-19T11:54:32.404Z,24.80
2023-05-19T11:55:32.399Z,24.78
2023-05-19T11:56:32.399Z,24.81
2023-05-19T11:57:32.394Z,24.78
2023-05-19T11:58:32.383Z,24.77
2023-05-19T11:59:33.509Z,24.78
2023-05-19T12:00:32.371Z,24.80
2023-05-19T12:01:32.369Z,24.76
2023-05-19T12:02:32.426Z,24.81
2023-05-19T12:03:32.424Z,24.76
2023-05-19T12:04:32.422Z,24.78
2023-05-19T12:05:34.966Z,24.78
2023-05-19T12:06:33.344Z,24.77
2023-05-19T12:07:32.354Z,24.81
2023-05-19T12:08:32.331Z,24.80
2023-05-19T12:09:32.305Z,24.81
2023-05-19T12:10:32.315Z,24.81
2023-05-19T12:11:32.297Z,24.81
2023-05-19T12:12:32.294Z,24.81
2023-05-19T12:13:32.283Z,24.77
2023-05-19T12:14:32.264Z,24.83
2023-05-19T12:15:32.512Z,24.81
2023-05-19T12:16:33.515Z,24.78
2023-05-19T12:17:32.280Z,24.80
2023-05-19T12:18:32.235Z,24.78
2023-05-19T12:19:32.270Z,24.78
2023-05-19T12:20:32.241Z,24.78
2023-05-19T12:21:34.263Z,24.78
2023-05-19T12:22:32.291Z,24.77
2023-05-19T12:23:32.277Z,24.80
2023-05-19T12:24:32.312Z,24.80
2023-05-19T12:25:32.780Z,24.80
2023-05-19T12:26:32.379Z,24.80
2023-05-19T12:27:34.135Z,24.80
2023-05-19T12:28:32.458Z,24.80
2023-05-19T12:29:32.477Z,24.80
2023-05-19T12:30:33.155Z,24.81
2023-05-19T12:31:32.541Z,24.80
2023-05-19T12:32:32.655Z,24.81
2023-05-19T12:33:33.509Z,24.81
2023-05-19T12:34:32.572Z,24.80
2023-05-19T12:35:32.562Z,24.81
2023-05-19T12:36:32.560Z,24.80
2023-05-19T12:37:32.558Z,24.80
2023-05-19T12:38:32.541Z,24.83
2023-05-19T12:39:32.532Z,24.81
2023-05-19T12:40:32.798Z,24.78
2023-05-19T12:41:32.532Z,24.80
2023-05-19T12:42:32.550Z,24.80
2023-05-19T12:43:32.511Z,24.83
2023-05-19T12:44:32.517Z,24.78
2023-05-19T12:45:32.523Z,24.78
2023-05-19T12:46:32.603Z,24.80
2023-05-19T12:47:32.535Z,24.78
2023-05-19T12:48:32.488Z,24.80
2023-05-19T12:49:32.481Z,24.81
2023-05-19T12:50:32.753Z,24.81
2023-05-19T12:51:32.461Z,24.80
2023-05-19T12:52:32.461Z,24.81